Archiv-/Tagesdaten

--Timestamp---	Temp	Chill	HIndex	Humid	Dewpt	Wind	HiWind	WindDir	Rain	Barom	        Solar	ET	UV
--------------	----	-----	------	-----	-----	----	------	-------	----	-----	        -----	--	--
20080815 00:05	15.3	15.3	15.3	92	14.0	3	6	292	0.00	1011.348	0	0.000	0
20080815 00:10	15.3	15.3	15.3	92	14.0	2	5	292	0.00	1011.212	0	0.000	0
20080815 00:15	15.4	15.4	15.4	92	14.1	0	3	292	0.20	1011.280	0	0.000	0
20080815 00:20	15.4	15.4	15.4	92	14.1	0	2	292	0.20	1011.314	0	0.000	0
20080815 00:25	15.4	15.4	15.4	92	14.1	0	3	292	0.00	1011.551	0	0.000	0
20080815 00:30	15.4	15.4	15.4	92	14.1	0	2	292	0.20	1011.686	0	0.000	0
20080815 00:35	15.5	15.5	15.5	92	14.2	0	2	292	0.20	1011.686	0	0.000	0
20080815 00:40	15.5	15.5	15.5	92	14.2	0	3	247	0.20	1011.551	0	0.000	0
20080815 00:45	15.5	15.5	15.5	92	14.2	0	3	247	0.20	1011.517	0	0.000	0
20080815 00:50	15.4	15.4	15.4	92	14.1	0	2	247	0.00	1011.449	0	0.000	0
20080815 00:55	15.4	15.4	15.4	92	14.1	0	2	247	0.40	1011.449	0	0.000	0
20080815 01:00	15.4	15.4	15.4	92	14.1	0	5	247	0.40	1011.212	0	0.000	0
20080815 01:05	15.3	15.3	15.3	92	14.0	3	5	247	0.40	1010.772	0	0.000	0
20080815 01:10	15.2	15.2	15.2	92	13.9	3	6	67	0.40	1010.738	0	0.000	0
20080815 01:15	15.1	15.1	15.1	92	13.8	2	6	90	0.20	1010.535	0	0.000	0
20080815 01:20	15.0	15.0	15.0	92	13.7	5	8	67	0.20	1010.400	0	0.000	0
20080815 01:25	15.0	15.0	15.0	93	13.9	5	10	67	0.20	1010.264	0	0.000	0
20080815 01:30	15.0	15.0	15.0	93	13.9	5	8	67	0.00	1010.196	0	0.000	0
20080815 01:35	15.0	15.0	15.0	95	14.2	3	6	90	0.00	1010.095	0	0.000	0
20080815 01:40	14.9	14.9	14.9	93	13.8	3	6	90	0.00	1009.959	0	0.000	0
20080815 01:45	14.8	14.8	14.8	93	13.7	3	6	67	0.00	1009.993	0	0.000	0
20080815 01:50	14.8	14.8	14.8	93	13.7	2	5	0	0.00	1010.061	0	0.000	0
20080815 01:55	14.8	14.8	14.8	93	13.7	0	3	22	0.00	1010.061	0	0.000	0
20080815 02:00	14.7	14.7	14.7	93	13.6	0	2	22	0.00	1010.163	0	0.000	0
20080815 02:05	14.8	14.8	14.8	93	13.7	0	5	112	0.00	1010.129	0	0.000	0
20080815 02:10	14.9	14.9	14.9	93	13.8	2	8	112	0.00	1010.230	0	0.000	0
20080815 02:15	14.9	14.9	14.9	93	13.8	5	10	202	0.00	1010.264	0	0.000	0
20080815 02:20	14.8	14.8	14.8	93	13.7	2	10	202	0.00	1010.230	0	0.000	0
20080815 02:25	14.8	14.8	14.8	93	13.7	2	8	180	0.00	1010.298	0	0.000	0
20080815 02:30	14.9	14.9	14.9	93	13.8	2	8	180	0.00	1010.298	0	0.000	0
20080815 02:35	14.9	14.9	14.9	93	13.8	0	5	180	0.20	1010.298	0	0.000	0
20080815 02:40	14.8	14.8	14.8	93	13.7	2	8	180	0.00	1010.332	0	0.000	0
20080815 02:45	14.8	14.8	14.8	93	13.7	3	8	225	0.00	1010.230	0	0.000	0
20080815 02:50	14.8	14.8	14.8	93	13.7	2	8	202	0.00	1010.027	0	0.000	0
20080815 02:55	14.7	14.7	14.7	93	13.6	2	6	180	0.00	1009.722	0	0.000	0
20080815 03:00	14.8	14.8	14.8	93	13.7	0	3	157	0.00	1009.621	0	0.000	0
20080815 03:05	14.8	14.8	14.8	93	13.7	0	2	157	0.00	1009.519	0	0.000	0
20080815 03:10	14.8	14.8	14.8	93	13.7	0	3	157	0.00	1009.519	0	0.000	0
20080815 03:15	14.8	14.8	14.8	93	13.7	0	0	157	0.00	1009.384	0	0.000	0
20080815 03:20	14.8	14.8	14.8	93	13.7	0	3	157	0.20	1009.350	0	0.000	0
20080815 03:25	14.8	14.8	14.8	93	13.7	0	3	157	0.00	1009.181	0	0.000	0
20080815 03:30	14.8	14.8	14.8	93	13.7	0	0	157	0.00	1009.079	0	0.000	0
20080815 03:35	14.8	14.8	14.8	93	13.7	0	0	157	0.00	1008.977	0	0.000	0
20080815 03:40	14.8	14.8	14.8	93	13.7	0	0	157	0.00	1009.079	0	0.000	0
20080815 03:45	14.7	14.7	14.7	93	13.6	0	2	157	0.00	1008.842	0	0.000	0
20080815 03:50	14.7	14.7	14.7	93	13.6	0	0	157	0.00	1009.011	0	0.000	0
20080815 03:55	14.7	14.7	14.7	93	13.6	0	0	157	0.00	1009.011	0	0.000	0
20080815 04:00	14.7	14.7	14.7	93	13.6	0	0	157	0.00	1008.740	0	0.000	0
20080815 04:05	14.7	14.7	14.7	93	13.5	0	0	157	0.00	1008.943	0	0.000	0
20080815 04:10	14.7	14.7	14.7	93	13.5	0	0	157	0.00	1008.910	0	0.000	0
20080815 04:15	14.7	14.7	14.7	93	13.5	0	0	157	0.00	1008.842	0	0.000	0
20080815 04:20	14.7	14.7	14.7	93	13.5	0	0	157	0.00	1008.808	0	0.000	0
20080815 04:25	14.7	14.7	14.7	93	13.5	0	0	157	0.00	1008.876	0	0.000	0
20080815 04:30	14.7	14.7	14.7	93	13.5	0	0	157	0.00	1008.910	0	0.000	0
20080815 04:35	14.7	14.7	14.7	93	13.5	0	2	157	0.00	1008.842	0	0.000	0
20080815 04:40	14.7	14.7	14.7	93	13.6	2	5	157	0.00	1008.842	0	0.000	0
20080815 04:45	14.7	14.7	14.7	93	13.6	2	6	292	0.00	1008.740	0	0.000	0
20080815 04:50	14.7	14.7	14.7	94	13.8	0	2	292	0.20	1008.639	0	0.000	0
20080815 04:55	14.7	14.7	14.7	93	13.6	0	2	292	0.20	1008.605	0	0.000	0
20080815 05:00	14.7	14.7	14.7	94	13.8	0	2	292	0.00	1008.402	0	0.000	0
20080815 05:05	14.7	14.7	14.7	94	13.8	0	0	292	0.00	1008.402	0	0.000	0
20080815 05:10	14.7	14.7	14.7	93	13.6	0	0	292	0.20	1008.368	0	0.000	0
20080815 05:15	14.7	14.7	14.7	93	13.6	2	5	292	0.00	1008.131	0	0.000	0
20080815 05:20	14.8	14.8	14.8	93	13.7	0	3	22	0.00	1008.097	0	0.000	0
20080815 05:25	14.7	14.7	14.7	93	13.6	2	3	22	0.00	1008.097	0	0.000	0
20080815 05:30	14.7	14.7	14.7	93	13.6	2	3	22	0.00	1008.063	0	0.000	0
20080815 05:35	14.7	14.7	14.7	93	13.5	0	3	22	0.00	1007.894	0	0.000	0
20080815 05:40	14.6	14.6	14.6	93	13.5	2	3	22	0.00	1007.961	0	0.000	0
20080815 05:45	14.6	14.6	14.6	93	13.5	2	5	22	0.00	1007.894	0	0.000	0
20080815 05:50	14.6	14.6	14.6	94	13.6	2	5	22	0.00	1007.724	0	0.000	0
20080815 05:55	14.5	14.5	14.5	94	13.5	3	5	22	0.00	1007.758	0	0.000	0
20080815 06:00	14.4	14.4	14.4	94	13.5	2	3	22	0.00	1007.894	0	0.000	0
20080815 06:05	14.4	14.4	14.4	94	13.4	2	3	22	0.00	1008.097	0	0.000	0
20080815 06:10	14.4	14.4	14.4	94	13.4	0	3	22	0.00	1008.198	0	0.000	0
20080815 06:15	14.4	14.4	14.4	94	13.4	0	3	22	0.00	1008.063	0	0.000	0
20080815 06:20	14.4	14.4	14.4	93	13.3	3	5	22	0.00	1007.961	0	0.000	0
20080815 06:25	14.4	14.4	14.4	94	13.4	2	5	22	0.00	1007.826	0	0.000	0
20080815 06:30	14.4	14.4	14.4	94	13.5	0	3	22	0.00	1007.623	0	0.000	0
20080815 06:35	14.4	14.4	14.4	94	13.4	0	5	22	0.00	1007.521	0	0.000	0
20080815 06:40	14.3	14.3	14.3	94	13.4	3	6	22	0.00	1007.250	3	0.000	0
20080815 06:45	14.3	14.3	14.3	94	13.3	5	8	22	0.00	1007.081	5	0.000	0
20080815 06:50	14.2	14.2	14.2	93	13.1	5	8	22	0.00	1006.912	7	0.000	0
20080815 06:55	14.2	14.2	14.2	94	13.2	3	6	0	0.00	1007.115	5	0.000	0
20080815 07:00	14.2	14.2	14.2	94	13.2	3	6	0	0.20	1007.013	7	0.000	0
20080815 07:05	14.2	14.2	14.2	94	13.2	3	6	0	0.00	1007.115	8	0.000	0
20080815 07:10	14.2	14.2	14.2	94	13.2	5	10	0	0.00	1007.115	9	0.000	0
20080815 07:15	14.1	14.1	14.1	94	13.2	3	8	22	0.00	1007.081	8	0.000	0
20080815 07:20	14.1	14.1	14.1	94	13.1	6	11	22	0.00	1007.013	9	0.000	0
20080815 07:25	13.9	13.9	13.9	93	12.8	6	16	22	0.00	1007.047	12	0.000	0
20080815 07:30	13.9	13.9	13.9	93	12.8	5	10	22	0.00	1007.081	12	0.000	0
20080815 07:35	13.9	13.9	13.9	93	12.8	3	8	22	0.00	1007.081	12	0.000	0
20080815 07:40	13.8	13.8	13.8	93	12.7	5	10	0	0.00	1007.081	12	0.000	0
20080815 07:45	13.7	13.7	13.7	93	12.6	2	8	0	0.20	1007.149	11	0.000	0
20080815 07:50	13.6	13.6	13.6	93	12.5	0	3	22	0.00	1007.183	12	0.000	0
20080815 07:55	13.6	13.6	13.6	93	12.4	2	6	0	0.00	1007.284	14	0.000	0
20080815 08:00	13.5	13.5	13.5	93	12.4	0	3	337	0.00	1007.352	13	0.000	0
20080815 08:05	13.6	13.6	13.6	93	12.4	0	5	45	0.20	1007.318	14	0.000	0
20080815 08:10	13.4	13.4	13.4	93	12.3	0	3	337	0.00	1007.352	14	0.000	0
20080815 08:15	13.4	13.4	13.4	93	12.3	2	5	315	0.20	1007.318	18	0.000	0
20080815 08:20	13.3	13.3	13.3	93	12.2	3	10	292	0.20	1007.420	18	0.000	0
20080815 08:25	13.2	13.2	13.2	93	12.1	8	19	292	0.20	1007.420	12	0.000	0
20080815 08:30	13.1	13.1	13.1	93	12.0	8	16	292	0.20	1007.453	11	0.000	0
20080815 08:35	13.2	13.2	13.2	93	12.1	10	19	270	0.20	1007.589	10	0.000	0
20080815 08:40	13.2	13.2	13.2	93	12.1	10	23	270	0.60	1007.690	7	0.000	0
20080815 08:45	13.2	13.2	13.2	93	12.1	14	24	292	0.60	1007.928	11	0.000	0
20080815 08:50	13.1	13.1	13.1	93	12.0	13	26	270	0.60	1008.266	4	0.000	0
20080815 08:55	13.0	13.0	13.0	93	11.9	8	23	270	0.80	1008.334	8	0.000	0
20080815 09:00	13.0	13.0	13.0	93	11.9	11	19	270	0.40	1008.266	14	0.000	0
20080815 09:05	12.9	12.9	12.9	93	11.8	11	21	292	0.40	1008.232	24	0.000	0
20080815 09:10	12.9	12.9	12.9	93	11.8	13	31	292	0.60	1008.435	28	0.000	0
20080815 09:15	12.9	12.9	12.9	93	11.8	10	18	270	0.20	1008.266	33	0.000	0
20080815 09:20	13.0	13.0	13.0	93	11.9	10	21	292	0.40	1008.198	55	0.000	0
20080815 09:25	13.0	13.0	13.0	93	11.9	11	24	292	0.40	1008.198	75	0.000	0
20080815 09:30	13.1	13.1	13.1	93	11.9	10	21	292	0.20	1008.198	73	0.000	0
20080815 09:35	13.1	13.1	13.1	93	11.9	10	19	292	0.00	1008.097	81	0.000	1
20080815 09:40	13.1	13.1	13.1	93	11.9	11	24	292	0.00	1008.232	73	0.000	0
20080815 09:45	13.1	13.1	13.1	93	11.9	10	19	270	0.20	1008.368	56	0.000	0
20080815 09:50	13.1	13.1	13.1	93	12.0	6	16	270	0.00	1008.402	48	0.000	0
20080815 09:55	13.1	13.1	13.1	93	11.9	10	23	292	0.00	1008.334	48	0.000	0
20080815 10:00	13.1	13.1	13.1	93	11.9	8	19	292	0.00	1008.605	39	0.020	0
20080815 10:05	13.1	13.1	13.1	93	12.0	8	21	292	0.00	1008.808	34	0.000	0
20080815 10:10	13.1	13.1	13.1	93	12.0	6	11	292	0.00	1008.842	33	0.000	0
20080815 10:15	13.1	13.1	13.1	93	12.0	5	11	270	0.00	1008.876	35	0.000	0
20080815 10:20	13.1	13.1	13.1	93	12.0	8	19	292	0.20	1008.943	43	0.000	0
20080815 10:25	13.1	13.1	13.1	93	11.9	8	18	292	0.20	1008.943	44	0.000	0
20080815 10:30	13.1	13.1	13.1	93	12.0	6	16	292	0.20	1008.943	53	0.000	0
20080815 10:35	13.2	13.2	13.2	93	12.1	8	19	292	0.00	1008.842	63	0.000	0
20080815 10:40	13.1	13.1	13.1	93	12.0	10	19	292	0.20	1008.808	77	0.000	1
20080815 10:45	13.1	13.1	13.1	93	12.0	8	16	292	0.00	1008.774	73	0.000	1
20080815 10:50	13.2	13.2	13.2	93	12.1	8	19	292	0.20	1008.706	49	0.000	0
20080815 10:55	13.2	13.2	13.2	93	12.1	6	19	292	0.00	1008.808	41	0.000	0
20080815 11:00	13.2	13.2	13.2	93	12.1	6	11	270	0.00	1008.842	47	0.000	0
20080815 11:05	13.2	13.2	13.2	93	12.1	8	21	292	0.00	1008.808	48	0.020	0
20080815 11:10	13.1	13.1	13.1	93	12.0	10	19	292	0.00	1008.706	42	0.000	0
20080815 11:15	13.2	13.2	13.2	93	12.1	8	16	292	0.20	1008.706	38	0.000	0
20080815 11:20	13.2	13.2	13.2	93	12.1	8	21	270	0.00	1008.808	33	0.000	0
20080815 11:25	13.1	13.1	13.1	93	12.0	10	26	270	0.00	1008.876	31	0.000	0
20080815 11:30	13.1	13.1	13.1	93	12.0	10	24	270	0.00	1008.943	33	0.000	0
20080815 11:35	13.1	13.1	13.1	93	11.9	10	19	270	0.00	1009.011	41	0.000	0
20080815 11:40	13.0	13.0	13.0	93	11.9	11	23	292	0.00	1008.943	44	0.000	0
20080815 11:45	12.9	12.9	12.9	93	11.8	13	23	270	0.00	1009.011	46	0.000	0
20080815 11:50	12.9	12.9	12.9	93	11.8	10	24	270	0.20	1009.079	44	0.000	0
20080815 11:55	12.9	12.9	12.9	93	11.8	10	18	292	0.00	1009.147	60	0.000	0
20080815 12:00	12.9	12.9	12.9	93	11.8	11	21	270	0.00	1009.181	64	0.020	1
20080815 12:05	12.9	12.9	12.9	93	11.8	11	24	270	0.00	1009.181	64	0.000	1
20080815 12:10	12.9	12.9	12.9	93	11.8	11	21	292	0.20	1009.248	70	0.000	1
20080815 12:15	12.8	12.8	12.8	93	11.7	13	21	270	0.20	1009.113	82	0.000	1
20080815 12:20	12.8	12.8	12.8	93	11.7	11	26	270	0.00	1009.011	95	0.000	1
20080815 12:25	12.9	12.9	12.9	93	11.8	10	18	270	0.20	1008.910	99	0.000	1
20080815 12:30	12.9	12.9	12.9	93	11.8	8	18	270	0.00	1008.808	93	0.000	1
20080815 12:35	12.9	12.9	12.9	93	11.8	6	18	292	0.00	1008.774	97	0.000	1
20080815 12:40	13.1	13.1	13.1	93	11.9	6	14	270	0.00	1008.537	100	0.000	1
20080815 12:45	13.1	13.1	13.1	93	11.9	10	18	270	0.00	1008.808	117	0.000	1
20080815 12:50	13.1	13.1	13.1	93	12.0	6	16	270	0.00	1009.113	72	0.000	1
20080815 12:55	13.2	13.2	13.2	93	12.1	6	16	270	0.00	1008.943	140	0.000	1
20080815 13:00	13.3	13.3	13.3	93	12.2	8	18	270	0.00	1009.011	103	0.040	1
20080815 13:05	13.3	13.3	13.3	93	12.2	8	19	270	0.00	1009.248	111	0.000	1
20080815 13:10	13.3	13.3	13.3	93	12.2	6	19	270	0.20	1009.316	133	0.000	1
20080815 13:15	13.3	13.3	13.3	93	12.2	6	11	270	0.00	1009.350	123	0.000	1
20080815 13:20	13.4	13.4	13.4	93	12.3	6	16	270	0.00	1009.316	139	0.000	1
20080815 13:25	13.4	13.4	13.4	93	12.3	3	10	270	0.00	1009.181	165	0.000	2
20080815 13:30	13.6	13.6	13.6	93	12.5	5	11	270	0.00	1009.147	178	0.000	2
20080815 13:35	13.7	13.7	13.7	93	12.6	5	8	292	0.00	1009.214	120	0.000	1
20080815 13:40	13.7	13.7	13.7	92	12.4	5	10	292	0.00	1009.181	82	0.000	1
20080815 13:45	13.7	13.7	13.7	92	12.4	6	13	270	0.00	1009.248	68	0.000	1
20080815 13:50	13.7	13.7	13.7	91	12.2	6	13	270	0.00	1009.587	58	0.000	0
20080815 13:55	13.7	13.7	13.7	91	12.2	6	11	292	0.00	1009.790	49	0.000	0
20080815 14:00	13.7	13.7	13.7	91	12.3	6	13	270	0.00	1009.790	57	0.040	0
20080815 14:05	13.7	13.7	13.7	92	12.4	3	8	270	0.00	1009.926	58	0.000	0
20080815 14:10	13.7	13.7	13.7	91	12.3	6	14	270	0.00	1009.993	58	0.000	0
20080815 14:15	13.7	13.7	13.7	91	12.3	8	16	292	0.00	1010.196	75	0.000	1
20080815 14:20	13.7	13.7	13.7	90	12.1	6	16	270	0.00	1009.858	89	0.000	1
20080815 14:25	13.8	13.8	13.8	90	12.2	6	14	270	0.00	1009.824	90	0.000	1
20080815 14:30	13.9	13.9	13.9	90	12.3	8	19	270	0.00	1009.892	125	0.000	1
20080815 14:35	13.9	13.9	13.9	89	12.1	8	16	292	0.00	1009.892	93	0.000	1
20080815 14:40	13.9	13.9	13.9	89	12.2	5	14	270	0.00	1009.959	105	0.000	1
20080815 14:45	14.0	14.0	14.0	89	12.2	5	11	292	0.00	1009.790	123	0.000	1
20080815 14:50	14.1	14.1	14.1	88	12.1	6	18	292	0.00	1009.451	132	0.000	1
20080815 14:55	14.1	14.1	14.1	89	12.3	6	14	292	0.00	1009.519	156	0.000	2
20080815 15:00	14.2	14.2	14.2	88	12.3	8	18	270	0.00	1009.655	122	0.040	1
20080815 15:05	14.2	14.2	14.2	87	12.1	8	18	292	0.00	1009.621	62	0.000	0
20080815 15:10	14.2	14.2	14.2	87	12.0	6	14	270	0.00	1009.519	108	0.000	1
20080815 15:15	14.2	14.2	14.2	87	12.1	6	14	292	0.00	1009.485	148	0.000	1
20080815 15:20	14.3	14.3	14.3	86	12.0	5	14	292	0.00	1009.688	187	0.000	2
20080815 15:25	14.4	14.4	14.4	86	12.1	10	21	292	0.00	1009.519	232	0.000	2
20080815 15:30	14.6	14.6	14.6	86	12.2	6	18	292	0.00	1009.418	180	0.000	2
20080815 15:35	14.7	14.7	14.7	86	12.3	10	19	292	0.00	1009.214	171	0.000	2
20080815 15:40	14.6	14.6	14.6	86	12.3	10	19	292	0.00	1009.181	107	0.000	1
20080815 15:45	14.6	14.6	14.6	87	12.5	10	19	270	0.00	1009.316	261	0.000	3
20080815 15:50	14.8	14.8	14.8	87	12.6	6	14	292	0.00	1009.181	203	0.000	2
20080815 15:55	14.7	14.7	14.7	86	12.4	8	16	270	0.00	1009.248	114	0.000	1
20080815 16:00	14.6	14.6	14.6	85	12.1	8	16	270	0.00	1009.519	77	0.080	1
20080815 16:05	14.4	14.4	14.4	86	12.1	6	14	270	0.00	1009.621	38	0.000	0
20080815 16:10	14.3	14.3	14.3	86	12.0	6	10	292	0.00	1009.587	14	0.000	0
20080815 16:15	14.2	14.2	14.2	87	12.1	3	8	270	0.00	1009.587	13	0.000	0
20080815 16:20	14.2	14.2	14.2	88	12.2	8	16	270	0.00	1009.485	24	0.000	0
20080815 16:25	14.1	14.1	14.1	89	12.3	6	10	292	0.20	1009.587	12	0.000	0
20080815 16:30	14.0	14.0	14.0	89	12.2	6	14	292	0.20	1009.756	11	0.000	0
20080815 16:35	13.9	13.9	13.9	90	12.3	3	18	270	0.00	1009.926	50	0.000	0
20080815 16:40	13.8	13.8	13.8	90	12.2	5	16	292	0.00	1009.858	102	0.000	1
20080815 16:45	13.8	13.8	13.8	90	12.2	2	5	292	0.00	1009.790	93	0.000	1
20080815 16:50	13.8	13.8	13.8	91	12.3	2	5	270	0.20	1009.959	39	0.000	0
20080815 16:55	13.7	13.7	13.7	91	12.3	3	8	22	0.00	1009.959	30	0.000	0
20080815 17:00	13.6	13.6	13.6	91	12.2	5	14	292	0.20	1009.926	23	0.020	0
20080815 17:05	13.3	13.3	13.3	91	11.9	5	16	270	0.00	1009.993	49	0.000	0
20080815 17:10	13.3	13.3	13.3	91	11.8	6	18	292	0.20	1009.959	63	0.000	0
20080815 17:15	13.3	13.3	13.3	92	12.1	5	14	292	0.00	1009.993	54	0.000	0
20080815 17:20	13.3	13.3	13.3	92	12.1	3	11	292	0.00	1009.993	40	0.000	0
20080815 17:25	13.3	13.3	13.3	92	12.1	3	11	270	0.00	1009.993	40	0.000	0
20080815 17:30	13.2	13.2	13.2	91	11.8	5	16	292	0.00	1009.926	24	0.000	0
20080815 17:35	12.9	12.9	12.9	91	11.5	8	21	22	0.20	1010.196	26	0.000	0
20080815 17:40	12.9	12.9	12.9	92	11.6	3	11	45	0.00	1010.298	35	0.000	0
20080815 17:45	12.9	12.9	12.9	92	11.6	2	11	22	0.00	1010.501	39	0.000	0
20080815 17:50	12.8	12.8	12.8	92	11.6	3	19	22	0.00	1010.738	42	0.000	0
20080815 17:55	12.8	12.8	12.8	92	11.6	3	11	22	0.00	1010.772	45	0.000	0
20080815 18:00	12.8	12.8	12.8	92	11.6	2	8	22	0.00	1010.738	28	0.020	0
20080815 18:05	12.8	12.8	12.8	92	11.6	2	6	292	0.00	1010.671	19	0.000	0
20080815 18:10	12.8	12.8	12.8	92	11.5	2	6	45	0.00	1010.603	16	0.000	0
20080815 18:15	12.8	12.8	12.8	92	11.5	2	6	292	0.00	1010.400	23	0.000	0
20080815 18:20	12.8	12.8	12.8	93	11.7	2	6	292	0.00	1010.467	34	0.000	0
20080815 18:25	12.8	12.8	12.8	93	11.7	2	6	67	0.00	1010.671	30	0.000	0
20080815 18:30	12.8	12.8	12.8	93	11.7	2	10	22	0.00	1010.908	18	0.000	0
20080815 18:35	12.8	12.8	12.8	92	11.6	2	8	22	0.00	1010.772	8	0.000	0
20080815 18:40	12.8	12.8	12.8	92	11.5	2	6	22	0.00	1010.840	3	0.000	0
20080815 18:45	12.8	12.8	12.8	92	11.5	2	8	45	0.00	1010.908	4	0.000	0
20080815 18:50	12.7	12.7	12.7	92	11.5	3	8	22	0.00	1010.772	17	0.000	0
20080815 18:55	12.7	12.7	12.7	92	11.5	5	11	22	0.00	1010.806	15	0.000	0
20080815 19:00	12.7	12.7	12.7	91	11.2	3	16	45	0.00	1011.043	23	0.000	0
20080815 19:05	12.6	12.6	12.6	91	11.2	3	5	45	0.00	1011.009	30	0.000	0
20080815 19:10	12.6	12.6	12.6	90	11.0	6	23	22	0.00	1011.009	28	0.000	0
20080815 19:15	12.6	12.6	12.6	90	11.0	5	21	22	0.00	1011.043	18	0.000	0
20080815 19:20	12.6	12.6	12.6	90	11.0	3	14	22	0.00	1011.111	12	0.000	0
20080815 19:25	12.5	12.5	12.5	90	10.9	5	11	22	0.00	1011.009	9	0.000	0
20080815 19:30	12.4	12.4	12.4	89	10.6	5	10	45	0.00	1010.941	11	0.000	0
20080815 19:35	12.4	12.4	12.4	90	10.8	3	10	0	0.00	1010.874	15	0.000	0
20080815 19:40	12.3	12.3	12.3	90	10.7	2	5	45	0.00	1010.941	11	0.000	0
20080815 19:45	12.3	12.3	12.3	90	10.7	3	8	45	0.00	1011.145	7	0.000	0
20080815 19:50	12.3	12.3	12.3	90	10.7	3	8	0	0.00	1011.246	3	0.000	0
20080815 19:55	12.2	12.2	12.2	89	10.5	3	14	45	0.20	1011.416	2	0.000	0
20080815 20:00	12.2	12.2	12.2	89	10.5	5	13	22	0.00	1011.551	0	0.000	0
20080815 20:05	12.2	12.2	12.2	89	10.5	6	18	22	0.00	1011.686	0	0.000	0
20080815 20:10	12.2	12.2	12.2	89	10.4	5	11	22	0.00	1011.517	0	0.000	0
20080815 20:15	12.2	12.2	12.2	88	10.2	5	19	45	0.00	1011.619	0	0.000	0
20080815 20:20	12.2	12.2	12.2	88	10.2	5	16	22	0.00	1011.686	0	0.000	0
20080815 20:25	12.2	12.2	12.2	89	10.4	5	8	22	0.00	1011.720	0	0.000	0
20080815 20:30	12.1	12.1	12.1	88	10.2	8	16	22	0.00	1011.754	0	0.000	0
20080815 20:35	12.1	12.1	12.1	88	10.2	8	14	22	0.00	1011.890	0	0.000	0
20080815 20:40	12.1	12.1	12.1	88	10.2	8	18	22	0.00	1011.856	0	0.000	0
20080815 20:45	12.1	12.1	12.1	88	10.1	6	14	22	0.00	1011.957	0	0.000	0
20080815 20:50	12.1	12.1	12.1	88	10.1	6	16	22	0.00	1011.856	0	0.000	0
20080815 20:55	12.1	12.1	12.1	88	10.1	5	16	22	0.00	1011.856	0	0.000	0
20080815 21:00	12.1	12.1	12.1	88	10.1	6	11	22	0.00	1011.856	0	0.000	0
20080815 21:05	12.1	12.1	12.1	89	10.3	5	10	22	0.00	1011.856	0	0.000	0
20080815 21:10	12.1	12.1	12.1	89	10.3	5	8	0	0.00	1012.059	0	0.000	0
20080815 21:15	12.0	12.0	12.0	89	10.2	3	10	0	0.00	1012.194	0	0.000	0
20080815 21:20	12.0	12.0	12.0	89	10.2	3	8	22	0.00	1012.262	0	0.000	0
20080815 21:25	12.0	12.0	12.0	89	10.2	5	10	22	0.00	1012.296	0	0.000	0
20080815 21:30	12.0	12.0	12.0	89	10.2	3	8	22	0.00	1012.330	0	0.000	0
20080815 21:35	12.0	12.0	12.0	89	10.2	3	6	0	0.00	1012.431	0	0.000	0
20080815 21:40	12.0	12.0	12.0	89	10.2	3	6	0	0.00	1012.431	0	0.000	0
20080815 21:45	12.1	12.1	12.1	89	10.3	3	8	0	0.00	1012.398	0	0.000	0
20080815 21:50	12.1	12.1	12.1	89	10.3	2	6	0	0.00	1012.465	0	0.000	0
20080815 21:55	12.1	12.1	12.1	89	10.4	0	3	0	0.00	1012.465	0	0.000	0
20080815 22:00	12.1	12.1	12.1	90	10.5	0	8	22	0.00	1012.330	0	0.000	0
20080815 22:05	12.2	12.2	12.2	90	10.6	2	10	292	0.00	1012.194	0	0.000	0
20080815 22:10	12.1	12.1	12.1	89	10.4	0	6	270	0.00	1012.127	0	0.000	0
20080815 22:15	12.2	12.2	12.2	90	10.6	0	6	270	0.00	1012.059	0	0.000	0
20080815 22:20	12.2	12.2	12.2	90	10.6	2	8	292	0.00	1012.093	0	0.000	0
20080815 22:25	12.1	12.1	12.1	89	10.4	2	6	270	0.00	1012.228	0	0.000	0
20080815 22:30	12.1	12.1	12.1	89	10.4	2	6	292	0.00	1012.330	0	0.000	0
20080815 22:35	12.1	12.1	12.1	89	10.4	0	3	22	0.00	1012.465	0	0.000	0
20080815 22:40	12.1	12.1	12.1	89	10.4	2	6	315	0.00	1012.465	0	0.000	0
20080815 22:45	12.1	12.1	12.1	89	10.3	0	2	0	0.00	1012.431	0	0.000	0
20080815 22:50	12.1	12.1	12.1	89	10.3	2	6	292	0.00	1012.465	0	0.000	0
20080815 22:55	12.1	12.1	12.1	89	10.3	2	6	292	0.00	1012.499	0	0.000	0
20080815 23:00	12.1	12.1	12.1	90	10.5	0	5	292	0.00	1012.330	0	0.000	0
20080815 23:05	12.0	12.0	12.0	89	10.2	2	6	292	0.00	1012.127	0	0.000	0
20080815 23:10	12.0	12.0	12.0	90	10.4	0	3	270	0.00	1011.686	0	0.000	0
20080815 23:15	11.9	11.9	11.9	90	10.4	2	6	67	0.00	1011.619	0	0.000	0
20080815 23:20	11.9	11.9	11.9	90	10.3	2	5	22	0.00	1011.686	0	0.000	0
20080815 23:25	11.8	11.8	11.8	89	10.1	2	8	22	0.00	1011.653	0	0.000	0
20080815 23:30	11.7	11.7	11.7	89	10.0	2	6	0	0.00	1011.720	0	0.000	0
20080815 23:35	11.7	11.7	11.7	89	10.0	0	3	45	0.00	1011.856	0	0.000	0
20080815 23:40	11.7	11.7	11.7	89	9.9	0	3	315	0.00	1011.991	0	0.000	0
20080815 23:45	11.7	11.7	11.7	90	10.1	2	6	67	0.00	1011.957	0	0.000	0
20080815 23:50	11.7	11.7	11.7	89	9.9	2	8	292	0.00	1011.991	0	0.000	0
20080815 23:55	11.6	11.6	11.6	90	10.0	2	6	292	0.00	1011.924	0	0.000	0
20080815 24:00	11.6	11.6	11.6	90	10.0	3	6	292	0.00	1011.890	0	0.000	0



Please note the license to use and transfer of this data:
http://creativecommons.org/licenses/by-nc-sa/3.0/deed.en

Bitte beachten sie die Lizenz zur Verwertung und Weitergabe der Daten:
http://creativecommons.org/licenses/by-nc-sa/3.0/deed.de

zurück zur Übersicht der Archivdaten (Monats und Tagesdaten)

Cookies helfen bei der Bereitstellung von Inhalten. Durch die Nutzung dieser Seiten erklärst du dich damit einverstanden, dass Cookies auf deinem Rechner gespeichert werden. Weitere Information